Time;durP1;ratioP1;P1;durP2;ratioP2;P2;SDS_P1;SDS_P2;PMS_P1;PMS_P2;Temp;Humidity;BMP_temperature;BMP_pressure;BME280_temperature;BME280_humidity;BME280_pressure;Samples;Min_cycle;Max_cycle;Signal;HPM_P1;HPM_P2
2023/01/09 00:01:22;;;;;;;0.00;0.00;;;;;;;4.05;100.00;97881.19;6100245;23;20424;-79
2023/01/09 00:03:47;;;;;;;0.00;0.00;;;;;;;4.16;100.00;97907.03;6124226;23;20100;-80
2023/01/09 00:06:13;;;;;;;0.00;0.00;;;;;;;4.06;100.00;97909.81;6098533;23;20043;-80
2023/01/09 00:08:39;;;;;;;0.00;0.00;;;;;;;4.07;100.00;97925.78;6126482;23;20012;-79
2023/01/09 00:11:04;;;;;;;0.00;0.00;;;;;;;3.99;100.00;97921.78;6147770;23;20045;-78
2023/01/09 00:13:37;;;;;;;0.00;0.00;;;;;;;3.96;100.00;97922.34;6103983;23;20016;-79
2023/01/09 00:16:09;;;;;;;0.00;0.00;;;;;;;4.12;100.00;97935.75;6100255;23;20012;-78
2023/01/09 00:18:35;;;;;;;0.10;0.10;;;;;;;4.06;100.00;97940.41;6125775;23;20096;-78
2023/01/09 00:21:03;;;;;;;0.00;0.00;;;;;;;4.01;100.00;97946.63;6122953;23;20012;-80
2023/01/09 00:23:29;;;;;;;0.00;0.00;;;;;;;3.98;100.00;97946.41;6126172;23;20409;-79
2023/01/09 00:26:08;;;;;;;0.00;0.00;;;;;;;3.86;100.00;97943.28;6102119;23;20012;-80
2023/01/09 00:28:35;;;;;;;0.00;0.00;;;;;;;3.87;100.00;97950.28;6151818;23;20009;-80
2023/01/09 00:31:02;;;;;;;0.10;0.10;;;;;;;3.94;100.00;97961.59;6123936;23;20006;-79
2023/01/09 00:33:51;;;;;;;0.00;0.00;;;;;;;3.87;100.00;97970.03;6097422;23;20033;-80
2023/01/09 00:36:16;;;;;;;0.00;0.00;;;;;;;3.73;100.00;97963.66;6098160;23;20006;-79
2023/01/09 00:38:42;;;;;;;0.00;0.00;;;;;;;3.73;100.00;97966.34;6076222;23;20014;-80
2023/01/09 00:41:15;;;;;;;0.00;0.00;;;;;;;3.79;100.00;97981.44;6077308;23;20026;-80
2023/01/09 00:43:45;;;;;;;0.00;0.00;;;;;;;3.86;100.00;97992.75;6119926;23;20012;-80
2023/01/09 00:46:13;;;;;;;0.00;0.00;;;;;;;3.90;100.00;97991.09;6127530;23;20005;-80
2023/01/09 00:48:41;;;;;;;0.00;0.00;;;;;;;3.90;100.00;97985.69;6122951;23;20014;-80
2023/01/09 00:51:07;;;;;;;0.00;0.00;;;;;;;4.13;100.00;98013.09;6152352;23;20005;-80
2023/01/09 00:53:36;;;;;;;0.10;0.10;;;;;;;4.19;100.00;98001.94;6098517;23;20073;-82
2023/01/09 00:56:05;;;;;;;0.00;0.00;;;;;;;4.45;100.00;98025.28;6152814;23;20338;-79
2023/01/09 00:58:33;;;;;;;0.00;0.00;;;;;;;4.56;100.00;98032.22;6125375;23;20005;-79
2023/01/09 01:01:04;;;;;;;0.00;0.00;;;;;;;4.61;100.00;98018.63;6148829;23;20001;-80
2023/01/09 01:03:31;;;;;;;0.00;0.00;;;;;;;4.60;100.00;98008.91;6126896;23;20041;-80
2023/01/09 01:08:43;;;;;;;0.00;0.00;;;;;;;4.28;100.00;98010.25;6154196;23;20011;-79
2023/01/09 01:11:10;;;;;;;0.00;0.00;;;;;;;4.32;100.00;98032.97;6148826;23;20005;-81
2023/01/09 01:13:41;;;;;;;0.00;0.00;;;;;;;4.18;100.00;98021.97;6152475;23;20004;-80
2023/01/09 01:16:10;;;;;;;0.00;0.00;;;;;;;4.11;100.00;98026.91;6149200;23;20116;-82
2023/01/09 01:18:39;;;;;;;0.00;0.00;;;;;;;4.03;100.00;98030.22;6155109;23;20076;-81
2023/01/09 01:21:08;;;;;;;0.00;0.00;;;;;;;4.08;100.00;98042.91;6125842;23;20033;-80
2023/01/09 01:23:34;;;;;;;0.00;0.00;;;;;;;3.96;100.00;98035.94;6128983;23;20014;-80
2023/01/09 01:26:26;;;;;;;0.00;0.00;;;;;;;4.01;100.00;98054.81;6149879;23;20033;-79
2023/01/09 01:28:51;;;;;;;0.03;0.03;;;;;;;3.92;100.00;98039.47;6123510;23;20444;-80
2023/01/09 01:31:20;;;;;;;0.10;0.10;;;;;;;3.91;100.00;98054.88;6147481;23;20012;-81
2023/01/09 01:33:56;;;;;;;;;;;;;;;;;;;;;
2023/01/09 01:36:21;;;;;;;0.00;0.00;;;;;;;3.93;100.00;98047.31;6151975;23;20084;-81
2023/01/09 01:38:47;;;;;;;0.00;0.00;;;;;;;4.12;100.00;98060.97;6153368;23;20001;-81
2023/01/09 01:41:13;;;;;;;0.05;0.05;;;;;;;4.32;100.00;98060.03;6128729;23;20037;-81
2023/01/09 01:43:50;;;;;;;0.00;0.00;;;;;;;4.46;100.00;98081.03;6126010;23;20092;-79
2023/01/09 01:46:17;;;;;;;0.00;0.00;;;;;;;4.41;100.00;98062.09;6152279;23;19998;-80
2023/01/09 01:48:47;;;;;;;0.10;0.10;;;;;;;4.59;100.00;98074.94;6150256;23;20010;-80
2023/01/09 01:51:15;;;;;;;0.00;0.00;;;;;;;4.82;100.00;98088.81;6153003;23;20021;-80
2023/01/09 01:53:48;;;;;;;0.00;0.00;;;;;;;4.85;100.00;98085.56;6126789;23;20131;-80
2023/01/09 01:56:29;;;;;;;0.00;0.00;;;;;;;4.89;100.00;98089.28;6154070;23;20330;-81
2023/01/09 01:59:07;;;;;;;0.00;0.00;;;;;;;5.05;100.00;98109.72;6148720;23;20009;-80
2023/01/09 02:01:35;;;;;;;0.00;0.00;;;;;;;5.04;100.00;98116.22;6153363;23;20040;-80
2023/01/09 02:04:01;;;;;;;0.00;0.00;;;;;;;5.14;100.00;98117.22;6151639;23;20444;-81
2023/01/09 02:06:34;;;;;;;0.00;0.00;;;;;;;5.18;100.00;98113.66;6128682;23;20054;-80
2023/01/09 02:09:05;;;;;;;0.00;0.00;;;;;;;5.22;100.00;98124.72;6126331;23;20089;-80
2023/01/09 02:11:31;;;;;;;0.00;0.00;;;;;;;5.11;100.00;98107.78;6153091;23;20060;-81
2023/01/09 02:14:01;;;;;;;0.00;0.00;;;;;;;5.19;100.00;98128.00;6128166;23;20006;-81
2023/01/09 02:16:55;;;;;;;0.00;0.00;;;;;;;5.10;100.00;98127.03;6150178;23;20068;-81
2023/01/09 02:19:57;;;;;;;0.00;0.00;;;;;;;5.13;100.00;98153.56;6149011;23;20088;-82
2023/01/09 02:22:43;;;;;;;0.10;0.10;;;;;;;5.21;100.00;98163.75;6152628;23;20443;-81
2023/01/09 02:25:17;;;;;;;0.10;0.10;;;;;;;5.32;100.00;98176.13;6152472;23;20020;-81
2023/01/09 02:27:54;;;;;;;;;;;;;;;5.38;100.00;98172.25;6148839;23;20033;-82
2023/01/09 02:30:43;;;;;;;0.10;0.10;;;;;;;5.27;100.00;98150.97;6154028;23;19908;-81
2023/01/09 02:33:34;;;;;;;0.10;0.10;;;;;;;5.34;100.00;98179.34;6145857;23;20024;-83
2023/01/09 02:36:08;;;;;;;0.00;0.00;;;;;;;5.21;100.00;98167.28;6151453;23;20006;-80
2023/01/09 02:38:59;;;;;;;0.10;0.10;;;;;;;5.28;100.00;98188.63;6149081;23;20475;-82
2023/01/09 02:41:37;;;;;;;0.00;0.00;;;;;;;5.40;100.00;98196.34;6163424;23;20000;-81
2023/01/09 02:44:23;;;;;;;0.00;0.00;;;;;;;5.37;100.00;98197.75;6152201;23;20416;-81
2023/01/09 02:47:21;;;;;;;0.00;0.00;;;;;;;5.30;100.00;98205.41;6147142;23;20032;-80
2023/01/09 02:49:58;;;;;;;0.00;0.00;;;;;;;5.25;100.00;98206.25;6101701;23;20009;-80
2023/01/09 02:52:44;;;;;;;0.10;0.10;;;;;;;5.20;100.00;98208.22;6150535;23;20008;-80
2023/01/09 02:55:34;;;;;;;0.00;0.00;;;;;;;5.14;100.00;98212.88;6148387;23;20005;-79
2023/01/09 02:58:03;;;;;;;0.00;0.00;;;;;;;5.12;100.00;98222.38;6149940;23;20016;-79
2023/01/09 03:00:50;;;;;;;0.00;0.00;;;;;;;5.09;100.00;98223.75;6147974;23;20006;-80
2023/01/09 03:03:34;;;;;;;0.10;0.10;;;;;;;5.00;100.00;98218.13;6148284;23;20432;-80
2023/01/09 03:06:21;;;;;;;0.00;0.00;;;;;;;4.84;100.00;98227.47;6145036;23;20017;-81
2023/01/09 03:08:51;;;;;;;0.00;0.00;;;;;;;4.75;100.00;98218.34;6151543;23;20009;-80
2023/01/09 03:11:17;;;;;;;0.00;0.00;;;;;;;4.69;100.00;98226.47;6147332;23;20029;-80
2023/01/09 03:14:10;;;;;;;0.00;0.00;;;;;;;4.70;100.00;98233.50;6127006;23;20451;-80
2023/01/09 03:16:37;;;;;;;0.05;0.05;;;;;;;4.74;100.00;98233.75;6150385;23;20006;-80
2023/01/09 03:19:10;;;;;;;0.00;0.00;;;;;;;4.85;100.00;98245.34;6150781;23;20332;-80
2023/01/09 03:21:37;;;;;;;0.00;0.00;;;;;;;4.99;100.00;98257.13;6148737;23;20001;-80
2023/01/09 03:24:05;;;;;;;0.00;0.00;;;;;;;5.04;100.00;98253.59;6125727;23;20006;-80
2023/01/09 03:26:33;;;;;;;0.00;0.00;;;;;;;5.07;100.00;98263.84;6123593;23;20009;-82
2023/01/09 03:28:59;;;;;;;0.00;0.00;;;;;;;5.06;100.00;98268.44;6151022;23;20141;-81
2023/01/09 03:31:36;;;;;;;;;;;;;;;;;;;;;
2023/01/09 03:34:20;;;;;;;0.00;0.00;;;;;;;5.09;100.00;98267.09;6129606;23;20394;-79
2023/01/09 03:36:45;;;;;;;0.00;0.00;;;;;;;5.01;100.00;98249.53;6145569;23;20005;-80
2023/01/09 03:39:11;;;;;;;0.00;0.00;;;;;;;5.16;100.00;98273.00;6150996;23;20012;-80
2023/01/09 03:41:36;;;;;;;0.00;0.00;;;;;;;5.10;100.00;98259.78;6126052;23;20127;-81
2023/01/09 03:44:02;;;;;;;0.00;0.00;;;;;;;5.17;100.00;98268.38;6099958;23;20006;-81
2023/01/09 03:46:27;;;;;;;0.00;0.00;;;;;;;5.23;100.00;98267.25;6126179;23;20009;-77
2023/01/09 03:48:52;;;;;;;0.10;0.10;;;;;;;5.18;100.00;98270.00;6149968;23;20080;-81
2023/01/09 03:51:28;;;;;;;0.00;0.00;;;;;;;5.27;100.00;98284.56;6150325;23;20017;-79
2023/01/09 03:53:58;;;;;;;0.00;0.00;;;;;;;5.23;100.00;98278.91;6144029;23;20010;-79
2023/01/09 03:56:29;;;;;;;0.00;0.00;;;;;;;5.14;100.00;98285.19;6126330;23;20016;-79
2023/01/09 03:58:54;;;;;;;0.10;0.10;;;;;;;5.19;100.00;98314.97;6149058;23;20048;-81
2023/01/09 04:01:22;;;;;;;0.00;0.00;;;;;;;5.09;100.00;98293.38;6148149;23;20002;-81
2023/01/09 04:03:47;;;;;;;0.10;0.10;;;;;;;5.04;100.00;98300.44;6147251;23;20009;-80
2023/01/09 04:06:13;;;;;;;0.00;0.00;;;;;;;4.92;100.00;98294.59;6099508;23;20010;-79
2023/01/09 04:08:38;;;;;;;0.00;0.00;;;;;;;4.95;100.00;98306.72;6151020;23;20443;-80
2023/01/09 04:11:04;;;;;;;0.00;0.00;;;;;;;4.89;100.00;98309.50;6096567;23;20009;-80
2023/01/09 04:13:29;;;;;;;0.00;0.00;;;;;;;4.92;100.00;98320.84;6148850;23;20005;-79
2023/01/09 04:15:55;;;;;;;0.00;0.00;;;;;;;4.96;100.00;98328.13;6097668;23;20020;-79
2023/01/09 04:18:20;;;;;;;0.10;0.10;;;;;;;4.95;100.00;98321.09;6151835;23;20044;-78
2023/01/09 04:20:47;;;;;;;0.00;0.00;;;;;;;4.95;100.00;98326.53;6148259;23;20005;-80
2023/01/09 04:23:12;;;;;;;0.00;0.00;;;;;;;4.84;100.00;98309.50;6125829;23;20010;-79
2023/01/09 04:25:38;;;;;;;0.00;0.00;;;;;;;4.90;100.00;98324.63;6126699;23;20018;-78
2023/01/09 04:28:03;;;;;;;0.00;0.00;;;;;;;4.94;100.00;98340.34;6095661;23;20037;-79
2023/01/09 04:30:29;;;;;;;0.00;0.00;;;;;;;4.99;100.00;98354.66;6125292;23;20406;-78
2023/01/09 04:32:54;;;;;;;0.00;0.00;;;;;;;4.99;100.00;98354.66;6147191;23;19997;-78
2023/01/09 04:35:23;;;;;;;0.00;0.00;;;;;;;4.88;100.00;98342.28;6151512;23;20710;-78
2023/01/09 04:37:49;;;;;;;0.00;0.00;;;;;;;4.82;100.00;98360.44;6147471;23;20016;-78
2023/01/09 04:40:17;;;;;;;0.00;0.00;;;;;;;4.60;100.00;98358.09;6126177;23;20010;-78
2023/01/09 04:42:43;;;;;;;0.00;0.00;;;;;;;4.42;100.00;98362.22;6150018;23;20009;-78
2023/01/09 04:45:10;;;;;;;0.00;0.00;;;;;;;4.29;100.00;98369.03;6121037;23;20012;-78
2023/01/09 04:47:36;;;;;;;0.10;0.10;;;;;;;4.16;100.00;98375.00;6151469;23;20001;-78
2023/01/09 04:50:02;;;;;;;0.00;0.00;;;;;;;4.12;100.00;98384.78;6145096;23;20016;-80
2023/01/09 04:52:37;;;;;;;0.00;0.00;;;;;;;4.21;100.00;98388.53;6125406;23;20001;-77
2023/01/09 04:55:04;;;;;;;0.10;0.10;;;;;;;4.34;100.00;98381.75;6144605;23;20009;-78
2023/01/09 04:57:29;;;;;;;0.00;0.00;;;;;;;4.29;100.00;98370.91;6149280;23;20012;-79
2023/01/09 04:59:55;;;;;;;0.00;0.00;;;;;;;4.36;100.00;98374.94;6149860;23;20009;-79
2023/01/09 05:02:20;;;;;;;0.00;0.00;;;;;;;4.31;100.00;98369.56;6119806;23;20053;-80
2023/01/09 05:04:45;;;;;;;0.00;0.00;;;;;;;4.23;100.00;98372.03;6149238;23;20013;-80
2023/01/09 05:07:11;;;;;;;0.00;0.00;;;;;;;4.04;100.00;98371.78;6122034;23;20069;-78
2023/01/09 05:09:36;;;;;;;0.10;0.10;;;;;;;3.86;100.00;98370.47;6125691;23;20060;-80
2023/01/09 05:12:02;;;;;;;0.00;0.00;;;;;;;3.76;100.00;98371.28;6147013;23;20017;-80
2023/01/09 05:14:27;;;;;;;0.00;0.00;;;;;;;3.69;100.00;98370.75;6126274;23;20477;-80
2023/01/09 05:16:53;;;;;;;0.00;0.00;;;;;;;3.67;100.00;98379.94;6126736;23;20016;-80
2023/01/09 05:19:38;;;;;;;0.00;0.00;;;;;;;3.92;100.00;98408.03;6147159;23;20013;-80
2023/01/09 05:22:04;;;;;;;0.10;0.10;;;;;;;3.90;100.00;98412.09;6123883;23;20010;-79
2023/01/09 05:24:32;;;;;;;0.00;0.00;;;;;;;4.06;100.00;98412.91;6102972;23;20020;-79
2023/01/09 05:26:57;;;;;;;0.10;0.10;;;;;;;4.15;100.00;98412.09;6153358;23;20059;-80
2023/01/09 05:29:23;;;;;;;0.00;0.00;;;;;;;4.17;100.00;98409.09;6123733;23;20009;-79
2023/01/09 05:31:48;;;;;;;0.00;0.00;;;;;;;4.09;100.00;98417.75;6153272;23;20409;-78
2023/01/09 05:34:14;;;;;;;0.00;0.00;;;;;;;3.82;100.00;98399.94;6149865;23;20006;-78
2023/01/09 05:36:39;;;;;;;0.00;0.00;;;;;;;3.70;100.00;98416.44;6126876;23;20013;-79
2023/01/09 05:39:05;;;;;;;0.00;0.00;;;;;;;3.46;100.00;98402.63;6125387;23;20009;-79
2023/01/09 05:41:31;;;;;;;0.00;0.00;;;;;;;3.46;100.00;98416.13;6151291;23;20125;-80
2023/01/09 05:43:56;;;;;;;0.00;0.00;;;;;;;3.52;100.00;98431.31;6152997;23;20422;-78
2023/01/09 05:46:21;;;;;;;0.00;0.00;;;;;;;3.46;100.00;98411.56;6149783;23;20443;-78
2023/01/09 05:48:47;;;;;;;0.00;0.00;;;;;;;3.69;100.00;98430.22;6153977;23;20341;-77
2023/01/09 05:51:12;;;;;;;0.00;0.00;;;;;;;3.91;100.00;98438.88;6154432;23;20320;-78
2023/01/09 05:53:38;;;;;;;0.00;0.00;;;;;;;4.08;100.00;98443.22;6126075;23;20342;-78
2023/01/09 05:56:04;;;;;;;0.03;0.03;;;;;;;3.98;100.00;98417.78;6152915;23;20002;-78
2023/01/09 05:58:29;;;;;;;0.10;0.10;;;;;;;4.16;100.00;98434.53;6123848;23;20006;-78
2023/01/09 06:00:57;;;;;;;0.00;0.00;;;;;;;4.04;100.00;98437.50;6127180;23;20013;-79
2023/01/09 06:03:22;;;;;;;0.00;0.00;;;;;;;3.86;100.00;98447.00;6127814;23;20101;-77
2023/01/09 06:05:48;;;;;;;0.00;0.00;;;;;;;3.69;100.00;98443.75;6113089;23;20418;-76
2023/01/09 06:08:13;;;;;;;0.00;0.00;;;;;;;3.47;100.00;98439.38;6140007;23;20048;-77
2023/01/09 06:10:39;;;;;;;0.05;0.05;;;;;;;3.45;100.00;98449.66;6113191;23;20025;-76
2023/01/09 06:13:04;;;;;;;0.00;0.00;;;;;;;3.40;100.00;98449.63;6141186;23;20028;-78
2023/01/09 06:15:30;;;;;;;0.00;0.00;;;;;;;3.41;100.00;98456.69;6124777;23;20005;-78
2023/01/09 06:17:55;;;;;;;0.10;0.10;;;;;;;3.41;100.00;98464.78;6152432;23;20084;-78
2023/01/09 06:20:20;;;;;;;0.10;0.10;;;;;;;3.56;100.00;98485.63;6151120;23;20121;-78
2023/01/09 06:22:46;;;;;;;0.00;0.00;;;;;;;3.68;100.00;98475.38;6124724;23;20005;-77
2023/01/09 06:25:14;;;;;;;0.00;0.00;;;;;;;3.63;100.00;98470.75;6102301;23;20010;-77
2023/01/09 06:27:40;;;;;;;0.00;0.00;;;;;;;3.73;100.00;98474.56;6123931;23;20017;-78
2023/01/09 06:30:06;;;;;;;0.00;0.00;;;;;;;3.69;100.00;98463.47;6126363;23;20021;-78
2023/01/09 06:32:32;;;;;;;0.10;0.10;;;;;;;3.57;100.00;98466.44;6149609;23;20005;-78
2023/01/09 06:34:57;;;;;;;0.10;0.10;;;;;;;3.57;100.00;98471.84;6127476;23;20010;-79
2023/01/09 06:37:22;;;;;;;0.00;0.00;;;;;;;3.60;100.00;98465.88;6147800;23;20081;-80
2023/01/09 06:39:48;;;;;;;0.00;0.00;;;;;;;3.65;100.00;98474.00;6150778;23;20333;-79
2023/01/09 06:42:13;;;;;;;0.00;0.00;;;;;;;3.87;100.00;98504.56;6126405;23;20033;-78
2023/01/09 06:44:39;;;;;;;0.10;0.10;;;;;;;3.89;100.00;98495.13;6098114;23;20005;-78
2023/01/09 06:47:04;;;;;;;0.00;0.00;;;;;;;3.84;100.00;98492.41;6149872;23;20036;-77
2023/01/09 06:49:30;;;;;;;0.00;0.00;;;;;;;3.80;100.00;98496.75;6151336;23;20080;-79
2023/01/09 06:51:55;;;;;;;0.00;0.00;;;;;;;3.87;100.00;98500.00;6147094;23;20005;-78
2023/01/09 06:54:21;;;;;;;0.10;0.10;;;;;;;3.86;100.00;98500.28;6125359;23;20438;-78
2023/01/09 06:56:47;;;;;;;0.00;0.00;;;;;;;3.77;100.00;98514.31;6148451;23;20515;-78
2023/01/09 06:59:13;;;;;;;0.00;0.00;;;;;;;3.92;100.00;98520.81;6149464;23;20005;-78
2023/01/09 07:01:39;;;;;;;0.10;0.10;;;;;;;4.01;100.00;98513.78;6150738;23;20450;-79
2023/01/09 07:04:05;;;;;;;0.10;0.10;;;;;;;4.05;100.00;98509.47;6148979;23;20029;-78
2023/01/09 07:06:34;;;;;;;0.10;0.10;;;;;;;3.99;100.00;98505.16;6101842;23;20025;-80
2023/01/09 07:08:59;;;;;;;0.10;0.10;;;;;;;3.92;100.00;98505.41;6122782;23;20010;-80
2023/01/09 07:11:27;;;;;;;0.00;0.00;;;;;;;3.97;100.00;98513.53;6150932;23;20013;-78
2023/01/09 07:13:52;;;;;;;0.10;0.10;;;;;;;3.99;100.00;98527.59;6121739;23;20005;-80
2023/01/09 07:16:18;;;;;;;0.10;0.10;;;;;;;3.98;100.00;98525.94;6150422;23;20013;-79
2023/01/09 07:18:49;;;;;;;0.00;0.00;;;;;;;4.07;100.00;98538.97;6147364;23;20009;-80
2023/01/09 07:21:14;;;;;;;0.00;0.00;;;;;;;3.96;100.00;98543.56;6126742;23;20504;-79
2023/01/09 07:23:42;;;;;;;0.10;0.10;;;;;;;3.94;100.00;98538.41;6125536;23;20052;-80
2023/01/09 07:26:08;;;;;;;0.00;0.00;;;;;;;4.16;100.00;98575.19;6122119;23;20009;-81
2023/01/09 07:28:33;;;;;;;0.10;0.10;;;;;;;4.06;100.00;98569.78;6149937;23;20009;-79
2023/01/09 07:31:03;;;;;;;0.10;0.10;;;;;;;4.10;100.00;98565.47;6121009;23;20013;-79
2023/01/09 07:33:29;;;;;;;0.00;0.00;;;;;;;4.18;100.00;98579.28;6150922;23;19997;-81
2023/01/09 07:35:55;;;;;;;0.08;0.08;;;;;;;4.21;100.00;98577.13;6143934;23;19997;-79
2023/01/09 07:38:20;;;;;;;0.00;0.00;;;;;;;4.16;100.00;98569.78;6148484;23;20097;-80
2023/01/09 07:40:46;;;;;;;0.10;0.10;;;;;;;4.19;100.00;98563.84;6148173;23;20033;-79
2023/01/09 07:43:11;;;;;;;0.00;0.00;;;;;;;4.27;100.00;98592.28;6122657;23;20010;-78
2023/01/09 07:45:37;;;;;;;0.10;0.10;;;;;;;4.13;100.00;98586.56;6122687;23;20009;-79
2023/01/09 07:48:02;;;;;;;0.00;0.00;;;;;;;4.16;100.00;98599.56;6145443;23;20052;-80
2023/01/09 07:50:28;;;;;;;0.10;0.10;;;;;;;4.10;100.00;98604.13;6097903;23;20009;-79
2023/01/09 07:53:00;;;;;;;0.10;0.10;;;;;;;4.15;100.00;98600.66;6148662;23;20006;-80
2023/01/09 07:55:28;;;;;;;0.00;0.00;;;;;;;4.25;100.00;98622.31;6145843;23;20005;-79
2023/01/09 07:57:54;;;;;;;0.00;0.00;;;;;;;4.28;100.00;98615.53;6124331;23;20077;-77
2023/01/09 08:00:20;;;;;;;0.00;0.00;;;;;;;4.41;100.00;98625.84;6121123;23;20471;-80
2023/01/09 08:02:50;;;;;;;0.10;0.10;;;;;;;4.44;100.00;98619.91;6099929;23;20456;-79
2023/01/09 08:05:18;;;;;;;0.10;0.10;;;;;;;4.53;100.00;98645.34;6146458;23;20017;-81
2023/01/09 08:07:46;;;;;;;0.00;0.00;;;;;;;4.51;100.00;98649.38;6149789;23;20024;-79
2023/01/09 08:10:12;;;;;;;0.00;0.00;;;;;;;4.50;100.00;98651.28;6122369;23;20145;-80
2023/01/09 08:12:41;;;;;;;0.00;0.00;;;;;;;4.60;100.00;98661.31;6127142;23;20045;-80
2023/01/09 08:15:07;;;;;;;0.10;0.10;;;;;;;4.61;100.00;98673.75;6151896;23;20012;-79
2023/01/09 08:17:32;;;;;;;0.10;0.10;;;;;;;4.63;100.00;98671.63;6101082;23;20009;-82
2023/01/09 08:19:58;;;;;;;0.00;0.00;;;;;;;4.66;100.00;98665.66;6127636;23;20037;-80
2023/01/09 08:22:23;;;;;;;0.00;0.00;;;;;;;4.66;100.00;98667.56;6149104;23;20519;-79
2023/01/09 08:25:06;;;;;;;;;;;;;;;;;;;;;
2023/01/09 08:27:50;;;;;;;0.00;0.00;;;;;;;4.66;100.00;98671.06;6150835;23;20049;-78
2023/01/09 08:30:24;;;;;;;0.10;0.10;;;;;;;4.75;100.00;98675.97;6152373;23;20015;-79
2023/01/09 08:33:13;;;;;;;0.00;0.00;;;;;;;4.81;100.00;98691.91;6151066;23;20004;-79
2023/01/09 08:35:57;;;;;;;0.00;0.00;;;;;;;4.72;100.00;98680.81;6153736;23;20077;-79
2023/01/09 08:38:50;;;;;;;0.00;0.00;;;;;;;4.79;100.00;98698.69;6152591;23;20010;-79
2023/01/09 08:54:12;;;;;;;0.10;0.10;;;;;;;4.46;100.00;98731.41;6086842;23;20006;-81
2023/01/09 08:56:37;;;;;;;0.00;0.00;;;;;;;4.62;100.00;98751.19;6137076;23;20094;-81
2023/01/09 08:59:03;;;;;;;0.00;0.00;;;;;;;4.77;100.00;98782.09;6102991;23;20009;-81
2023/01/09 09:01:28;;;;;;;0.00;0.00;;;;;;;4.70;100.00;98745.28;6153863;23;20306;-78
2023/01/09 09:03:54;;;;;;;0.10;0.10;;;;;;;5.02;100.00;98771.31;6147018;23;20013;-77
2023/01/09 09:06:19;;;;;;;0.00;0.00;;;;;;;5.18;100.00;98784.84;6151946;23;20018;-77
2023/01/09 09:08:45;;;;;;;0.00;0.00;;;;;;;5.23;100.00;98771.31;6121924;23;20908;-77
2023/01/09 09:11:12;;;;;;;0.10;0.10;;;;;;;5.47;100.00;98771.56;6124877;23;20104;-78
2023/01/09 09:13:40;;;;;;;0.05;0.05;;;;;;;5.51;100.00;98777.28;6122393;23;20001;-78
2023/01/09 09:16:15;;;;;;;0.00;0.00;;;;;;;5.56;100.00;98809.78;6127352;23;20064;-77
2023/01/09 09:18:41;;;;;;;0.10;0.10;;;;;;;5.55;100.00;98816.31;6147507;23;20009;-78
2023/01/09 09:21:16;;;;;;;;;;;;;;;;;;;;;
2023/01/09 09:23:45;;;;;;;0.00;0.00;;;;;;;5.52;100.00;98828.50;6151905;23;20088;-77
2023/01/09 09:26:10;;;;;;;0.00;0.00;;;;;;;5.68;100.00;98842.88;6131567;23;20089;-79
2023/01/09 09:28:43;;;;;;;0.00;0.00;;;;;;;5.67;100.00;98852.09;6103414;23;20036;-77
2023/01/09 09:31:18;;;;;;;0.00;0.00;;;;;;;5.61;100.00;98861.31;6154816;23;20499;-79
2023/01/09 09:34:00;;;;;;;0.00;0.00;;;;;;;5.51;100.00;98859.41;6156546;23;20005;-80
2023/01/09 09:36:33;;;;;;;0.00;0.00;;;;;;;5.30;100.00;98855.88;6155410;23;20570;-82
2023/01/09 09:39:01;;;;;;;0.10;0.10;;;;;;;5.39;100.00;98867.81;6126125;23;20017;-78
2023/01/09 09:44:55;;;;;;;0.10;0.10;;;;;;;6.97;100.00;98921.31;6162428;23;20020;-78
2023/01/09 09:47:48;;;;;;;0.00;0.00;;;;;;;8.16;100.00;98894.06;6147902;23;20013;-78
2023/01/09 09:50:32;;;;;;;0.10;0.10;;;;;;;9.04;100.00;98926.63;6150124;23;20135;-77
2023/01/09 09:53:06;;;;;;;0.10;0.10;;;;;;;9.81;100.00;98944.63;6150981;23;20009;-80
2023/01/09 09:55:34;;;;;;;0.00;0.00;;;;;;;11.32;100.00;98941.59;6149008;23;20013;-79
2023/01/09 09:58:10;;;;;;;0.00;0.00;;;;;;;11.72;100.00;98938.22;6158672;23;20012;-78
2023/01/09 10:00:36;;;;;;;0.00;0.00;;;;;;;11.93;100.00;98952.25;6159331;23;20002;-80
2023/01/09 10:03:20;;;;;;;0.00;0.00;;;;;;;12.13;100.00;98972.88;6124403;23;20028;-78
2023/01/09 10:05:50;;;;;;;;;;;;;;;13.38;100.00;98992.03;6147095;23;20010;-78
2023/01/09 10:08:19;;;;;;;0.00;0.00;;;;;;;14.77;97.02;99004.13;6129526;23;20042;-79
2023/01/09 10:10:52;;;;;;;0.00;0.00;;;;;;;15.55;94.18;99007.66;6150097;23;20017;-78
2023/01/09 10:16:17;;;;;;;0.00;0.00;;;;;;;16.14;96.64;99034.31;6148100;23;20036;-78
2023/01/09 10:19:18;;;;;;;0.00;0.00;;;;;;;16.56;79.15;99042.56;6153931;23;20001;-77
2023/01/09 10:22:01;;;;;;;0.10;0.10;;;;;;;16.90;94.10;99046.13;6149523;23;20112;-78
2023/01/09 10:25:00;;;;;;;0.00;0.00;;;;;;;16.27;85.94;99054.50;6151023;23;20010;-78
2023/01/09 10:27:51;;;;;;;0.10;0.10;;;;;;;15.63;89.75;99069.38;6146707;23;20061;-77
2023/01/09 10:30:44;;;;;;;0.00;0.00;;;;;;;14.68;92.59;99071.34;6152119;23;20020;-79
2023/01/09 10:33:35;;;;;;;0.00;0.00;;;;;;;13.70;96.07;99063.38;6147910;23;20005;-78
2023/01/09 10:36:09;;;;;;;0.00;0.00;;;;;;;14.61;99.93;99080.03;6144028;23;20001;-79
2023/01/09 10:38:38;;;;;;;;;;;;;;;16.00;87.85;99088.94;6154568;23;20425;-78
2023/01/09 10:41:17;;;;;;;0.00;0.00;;;;;;;16.53;85.93;99095.66;6142467;23;19904;-77
2023/01/09 10:43:47;;;;;;;0.10;0.10;;;;;;;17.23;87.87;99086.69;6149495;23;20005;-78
2023/01/09 10:46:22;;;;;;;0.10;0.10;;;;;;;17.81;82.03;99102.34;6149647;23;20008;-79
2023/01/09 10:48:58;;;;;;;0.00;0.00;;;;;;;18.49;82.79;99114.69;6151715;23;20010;-79
2023/01/09 10:51:45;;;;;;;0.00;0.00;;;;;;;19.06;84.50;99109.19;6152152;23;20008;-77
2023/01/09 10:54:13;;;;;;;0.00;0.00;;;;;;;19.36;71.67;99098.44;6154274;23;20008;-77
2023/01/09 10:56:47;;;;;;;0.00;0.00;;;;;;;19.75;78.74;99139.41;6150000;23;20002;-79
2023/01/09 10:59:19;;;;;;;0.00;0.00;;;;;;;19.74;71.58;99118.38;6150886;23;20009;-79
2023/01/09 11:01:45;;;;;;;0.00;0.00;;;;;;;19.20;66.80;99131.69;6148820;23;20016;-78
2023/01/09 11:04:28;;;;;;;0.00;0.00;;;;;;;18.09;75.20;99143.97;6127205;23;20026;-77
2023/01/09 11:06:59;;;;;;;0.00;0.00;;;;;;;16.42;70.38;99149.63;6152252;23;19998;-77
2023/01/09 11:09:24;;;;;;;0.00;0.00;;;;;;;13.58;78.54;99151.84;6148992;23;20014;-78
2023/01/09 11:11:50;;;;;;;0.00;0.00;;;;;;;11.98;92.62;99150.22;6148337;23;20021;-78
2023/01/09 11:14:36;;;;;;;0.00;0.00;;;;;;;12.15;100.00;99154.22;6128124;23;20024;-80
2023/01/09 11:17:03;;;;;;;0.00;0.00;;;;;;;11.82;89.61;99140.66;6151610;23;20016;-81
2023/01/09 11:19:31;;;;;;;0.00;0.00;;;;;;;10.95;92.65;99152.13;6155627;23;20437;-78
2023/01/09 11:22:14;;;;;;;0.03;0.03;;;;;;;10.61;95.39;99157.88;6152589;23;20421;-80
2023/01/09 11:24:39;;;;;;;0.00;0.00;;;;;;;11.14;100.00;99141.13;6152940;23;20001;-77
2023/01/09 11:27:42;;;;;;;0.00;0.00;;;;;;;14.01;100.00;99173.16;6101073;23;20056;-77
2023/01/09 11:30:08;;;;;;;0.00;0.00;;;;;;;17.66;86.52;99183.22;6141248;23;20009;-79
2023/01/09 11:32:34;;;;;;;0.00;0.00;;;;;;;16.99;76.61;99156.47;6146730;23;20394;-76
2023/01/09 11:35:03;;;;;;;0.00;0.00;;;;;;;15.33;80.73;99171.25;6147117;23;20002;-77
2023/01/09 11:37:30;;;;;;;0.00;0.00;;;;;;;17.08;78.34;99192.28;6149713;23;20013;-78
2023/01/09 11:40:01;;;;;;;0.00;0.00;;;;;;;16.77;79.97;99187.19;6147454;23;20882;-82
2023/01/09 11:45:31;;;;;;;0.00;0.00;;;;;;;13.81;83.09;99207.53;6145750;23;20298;-79
2023/01/09 11:47:58;;;;;;;0.00;0.00;;;;;;;14.17;86.97;99186.47;6147138;23;20392;-78
2023/01/09 11:50:29;;;;;;;0.00;0.00;;;;;;;15.48;78.66;99192.75;6152088;23;20460;-77
2023/01/09 11:53:15;;;;;;;0.00;0.00;;;;;;;17.38;78.27;99203.22;6149697;23;20001;-79
2023/01/09 11:55:54;;;;;;;0.00;0.00;;;;;;;17.92;75.18;99199.53;6149634;23;20009;-78
2023/01/09 11:58:20;;;;;;;0.00;0.00;;;;;;;17.79;80.61;99212.50;6149261;23;20001;-77
2023/01/09 12:00:56;;;;;;;0.00;0.00;;;;;;;20.38;78.21;99207.91;6151004;23;20012;-76
2023/01/09 12:03:46;;;;;;;0.00;0.00;;;;;;;22.11;78.67;99226.00;6142484;23;20018;-76
2023/01/09 12:06:39;;;;;;;0.00;0.00;;;;;;;23.09;74.06;99228.19;6151221;23;20001;-80
2023/01/09 12:09:06;;;;;;;0.10;0.10;;;;;;;23.74;67.92;99234.47;6150123;23;20440;-79
2023/01/09 12:12:00;;;;;;;0.00;0.00;;;;;;;24.01;64.13;99249.09;6150503;23;20327;-77
2023/01/09 12:14:40;;;;;;;0.03;0.03;;;;;;;24.41;57.61;99249.41;6150410;23;20009;-78
2023/01/09 12:17:34;;;;;;;0.00;0.00;;;;;;;23.44;60.20;99260.47;6146275;23;20009;-78
2023/01/09 12:20:21;;;;;;;0.00;0.00;;;;;;;23.63;68.58;99269.84;6148798;23;20009;-77
2023/01/09 12:22:56;;;;;;;0.00;0.00;;;;;;;22.21;63.05;99263.53;6147150;23;20060;-77